Time;durP1;ratioP1;P1;durP2;ratioP2;P2;SDS_P1;SDS_P2;PMS_P1;PMS_P2;Temp;Humidity;BMP_temperature;BMP_pressure;BME280_temperature;BME280_humidity;BME280_pressure;Samples;Min_cycle;Max_cycle;Signal;HPM_P1;HPM_P2
2022/03/17 00:03:55;;;;;;;28.48;17.95;;;9.80;99.90;;;;;;5977830;23;19922;-44
2022/03/17 00:07:21;;;;;;;26.33;17.70;;;9.80;99.90;;;;;;6001522;23;20039;-44
2022/03/17 00:10:48;;;;;;;26.52;17.88;;;9.80;99.90;;;;;;5974334;23;20020;-44
2022/03/17 00:14:14;;;;;;;26.65;17.27;;;9.80;99.90;;;;;;5951145;23;20610;-43
2022/03/17 00:17:41;;;;;;;27.10;17.83;;;9.80;99.90;;;;;;5950837;23;20019;-44
2022/03/17 00:21:06;;;;;;;29.02;17.95;;;9.70;99.90;;;;;;5972951;23;20083;-44
2022/03/17 00:24:33;;;;;;;23.23;16.90;;;9.70;99.90;;;;;;5976333;23;20371;-44
2022/03/17 00:27:57;;;;;;;27.13;17.67;;;9.70;99.90;;;;;;6001769;23;20335;-44
2022/03/17 00:31:24;;;;;;;27.55;17.38;;;9.70;99.90;;;;;;5985064;23;20035;-44
2022/03/17 00:38:16;;;;;;;28.40;17.80;;;9.70;99.90;;;;;;6002660;23;20026;-44
2022/03/17 00:41:45;;;;;;;27.90;18.90;;;9.70;99.90;;;;;;5982753;23;20066;-44
2022/03/17 00:45:10;;;;;;;28.35;18.05;;;9.60;99.90;;;;;;6003804;23;20019;-44
2022/03/17 00:48:37;;;;;;;25.77;16.98;;;9.60;99.90;;;;;;6029964;23;20490;-44
2022/03/17 00:52:02;;;;;;;28.25;18.00;;;9.60;99.90;;;;;;6028943;23;20647;-43
2022/03/17 00:55:28;;;;;;;27.73;18.33;;;9.60;99.90;;;;;;6001732;23;20122;-44
2022/03/17 00:58:53;;;;;;;28.92;17.95;;;9.60;99.90;;;;;;6029998;23;20094;-44
2022/03/17 01:02:20;;;;;;;27.60;18.17;;;9.60;99.90;;;;;;5977822;23;20494;-43
2022/03/17 01:05:45;;;;;;;28.50;17.70;;;9.60;99.90;;;;;;6033050;23;20099;-43
2022/03/17 01:12:44;;;;;;;28.35;19.33;;;9.60;99.90;;;;;;6004173;23;20628;-45
2022/03/17 01:16:04;;;;;;;30.30;19.27;;;9.60;99.90;;;;;;6005290;23;20098;-43
2022/03/17 01:19:29;;;;;;;30.08;17.88;;;9.60;99.90;;;;;;6030252;23;20019;-43
2022/03/17 01:22:56;;;;;;;30.00;18.65;;;9.50;99.90;;;;;;6031274;23;20019;-43
2022/03/17 01:26:23;;;;;;;27.55;18.45;;;9.50;99.90;;;;;;6003449;23;20040;-44
2022/03/17 01:29:48;;;;;;;28.67;18.42;;;9.50;99.90;;;;;;6003554;23;20098;-44
2022/03/17 01:36:48;;;;;;;30.55;19.00;;;9.50;99.90;;;;;;6003936;23;20019;-45
2022/03/17 01:40:08;;;;;;;28.13;19.23;;;9.40;99.90;;;;;;5977117;23;20094;-45
2022/03/17 01:43:32;;;;;;;32.95;18.40;;;9.50;99.90;;;;;;5977699;23;20027;-45
2022/03/17 01:50:35;;;;;;;29.83;18.80;;;9.40;99.90;;;;;;6003035;23;20114;-45
2022/03/17 01:53:52;;;;;;;27.40;18.80;;;9.40;99.90;;;;;;6002825;23;20100;-44
2022/03/17 01:57:18;;;;;;;29.25;19.05;;;9.30;99.90;;;;;;5976195;23;20030;-45
2022/03/17 02:00:48;;;;;;;28.40;18.60;;;9.30;99.90;;;;;;5976472;23;20499;-44
2022/03/17 02:04:10;;;;;;;30.23;19.50;;;9.30;99.90;;;;;;5978532;23;20094;-44
2022/03/17 02:07:35;;;;;;;26.77;18.83;;;9.30;99.90;;;;;;6000585;23;20086;-44
2022/03/17 02:14:34;;;;;;;30.25;18.95;;;9.20;99.90;;;;;;5975083;23;20024;-44
2022/03/17 02:17:54;;;;;;;29.55;19.73;;;9.30;99.90;;;;;;5977058;23;20502;-44
2022/03/17 02:21:21;;;;;;;31.60;17.75;;;9.30;99.90;;;;;;6003198;23;20023;-43
2022/03/17 02:28:14;;;;;;;27.88;18.63;;;9.30;99.90;;;;;;6004385;23;20102;-45
2022/03/17 02:31:40;;;;;;;27.98;17.98;;;9.30;99.90;;;;;;5985602;23;20030;-44
2022/03/17 02:35:07;;;;;;;25.98;18.00;;;9.30;99.90;;;;;;6004727;23;20054;-46
2022/03/17 02:38:33;;;;;;;30.73;18.42;;;9.40;99.90;;;;;;6030881;23;20034;-44
2022/03/17 02:41:57;;;;;;;30.00;17.98;;;9.40;99.90;;;;;;6003222;23;20015;-44
2022/03/17 02:45:23;;;;;;;29.33;19.48;;;9.40;99.90;;;;;;6005417;23;20117;-44
2022/03/17 02:48:49;;;;;;;27.88;17.92;;;9.40;99.90;;;;;;5999622;23;20086;-45
2022/03/17 02:52:17;;;;;;;31.80;18.60;;;9.40;99.90;;;;;;6004072;23;20050;-44
2022/03/17 02:55:41;;;;;;;29.90;18.83;;;9.40;99.90;;;;;;6006957;23;20026;-43
2022/03/17 02:59:07;;;;;;;30.65;20.17;;;9.40;99.90;;;;;;6004206;23;20046;-44
2022/03/17 03:02:35;;;;;;;30.95;18.58;;;9.40;99.90;;;;;;6030764;23;20034;-44
2022/03/17 03:09:25;;;;;;;27.60;18.02;;;9.40;99.90;;;;;;6029557;23;20155;-44
2022/03/17 03:19:45;;;;;;;29.38;18.98;;;9.50;99.90;;;;;;6002490;23;20570;-44
2022/03/17 03:57:30;;;;;;;27.55;18.80;;;9.60;99.90;;;;;;6001849;23;20024;-44
2022/03/17 04:28:25;;;;;;;33.22;23.30;;;9.60;99.90;;;;;;6003152;23;20090;-43
2022/03/17 04:35:16;;;;;;;34.78;22.73;;;9.60;99.90;;;;;;6002431;23;20502;-43
2022/03/17 04:38:43;;;;;;;34.63;22.77;;;9.70;99.90;;;;;;6006599;23;20027;-43
2022/03/17 04:42:10;;;;;;;36.13;24.90;;;9.70;99.90;;;;;;6003008;23;20086;-43
2022/03/17 04:45:36;;;;;;;38.15;24.35;;;9.60;99.90;;;;;;6006077;23;20056;-42
2022/03/17 04:49:01;;;;;;;40.45;27.48;;;9.60;99.90;;;;;;6003047;23;20110;-43
2022/03/17 04:55:53;;;;;;;38.00;26.27;;;9.50;99.90;;;;;;6029341;23;20442;-43
2022/03/17 04:59:21;;;;;;;41.75;27.05;;;9.40;99.90;;;;;;6005015;23;20016;-42
2022/03/17 05:02:46;;;;;;;38.38;26.42;;;9.40;99.90;;;;;;6006304;23;20016;-43
2022/03/17 05:06:12;;;;;;;41.53;28.42;;;9.30;99.90;;;;;;5983537;23;20495;-43
2022/03/17 05:09:38;;;;;;;44.38;29.05;;;9.30;99.90;;;;;;6001746;23;20111;-43
2022/03/17 05:13:04;;;;;;;41.90;29.27;;;9.20;99.90;;;;;;6004913;23;20021;-43
2022/03/17 05:16:31;;;;;;;45.90;30.45;;;9.20;99.90;;;;;;5981229;23;20034;-43
2022/03/17 05:19:57;;;;;;;49.00;32.13;;;9.20;99.90;;;;;;6004180;23;20020;-43
2022/03/17 05:23:23;;;;;;;50.15;32.00;;;9.20;99.90;;;;;;6032806;23;20019;-44
2022/03/17 05:26:49;;;;;;;46.38;28.60;;;9.10;99.90;;;;;;6006412;23;20594;-43
2022/03/17 05:30:16;;;;;;;41.17;25.48;;;9.10;99.90;;;;;;6027663;23;20015;-44
2022/03/17 05:33:39;;;;;;;25.17;16.58;;;9.10;99.90;;;;;;6001334;23;20033;-44
2022/03/17 05:37:08;;;;;;;15.52;10.07;;;9.10;99.90;;;;;;6002469;23;20058;-46
2022/03/17 05:40:35;;;;;;;12.05;8.80;;;9.00;99.90;;;;;;5982863;23;20049;-44
2022/03/17 05:44:01;;;;;;;9.00;6.97;;;8.80;99.90;;;;;;6024282;23;20432;-43
2022/03/17 05:47:27;;;;;;;7.68;5.88;;;8.70;99.90;;;;;;6006251;23;20019;-44
2022/03/17 05:50:53;;;;;;;8.00;6.50;;;8.60;99.90;;;;;;6004371;23;20031;-43
2022/03/17 05:57:57;;;;;;;9.57;6.53;;;8.60;99.90;;;;;;6005837;23;20030;-44
2022/03/17 06:01:14;;;;;;;12.85;8.13;;;8.40;99.90;;;;;;5979857;23;20387;-45
2022/03/17 06:04:34;;;;;;;12.38;7.97;;;8.30;99.90;;;;;;5985426;23;20038;-45
2022/03/17 06:08:00;;;;;;;13.27;8.32;;;8.30;99.90;;;;;;6031453;23;20618;-44
2022/03/17 06:11:27;;;;;;;14.23;8.02;;;8.20;99.90;;;;;;6007078;23;20015;-44
2022/03/17 06:14:54;;;;;;;17.45;10.13;;;8.20;99.90;;;;;;5981482;23;20054;-44
2022/03/17 06:18:20;;;;;;;23.80;10.27;;;8.20;99.90;;;;;;6008847;23;20070;-44
2022/03/17 06:21:46;;;;;;;18.50;8.70;;;8.10;99.90;;;;;;6006248;23;20023;-45
2022/03/17 06:25:14;;;;;;;17.25;7.45;;;8.10;99.90;;;;;;6025079;23;20051;-44
2022/03/17 06:28:38;;;;;;;17.45;7.05;;;8.00;99.90;;;;;;6030725;23;20023;-44
2022/03/17 06:34:46;;;;;;;;;;;7.90;99.90;;;;;;6001284;23;20059;-39
2022/03/17 06:37:13;;;;;;;11.40;4.78;;;7.90;99.90;;;;;;6007222;23;20329;-39
2022/03/17 06:50:55;;;;;;;11.80;5.05;;;7.80;99.90;;;;;;6033564;23;20077;-39
2022/03/17 07:32:10;;;;;;;8.20;1.83;;;7.60;99.90;;;;;;6031024;23;20046;-38
2022/03/17 07:35:34;;;;;;;7.40;1.90;;;7.50;99.90;;;;;;6032382;23;20024;-38
2022/03/17 07:39:03;;;;;;;10.30;1.52;;;7.60;99.90;;;;;;6006936;23;20046;-38
2022/03/17 07:42:26;;;;;;;12.30;1.83;;;7.60;99.90;;;;;;6027659;23;20015;-38
2022/03/17 07:45:55;;;;;;;8.45;1.73;;;7.60;99.90;;;;;;5979603;23;20330;-39
2022/03/17 07:49:18;;;;;;;6.32;1.75;;;7.50;99.90;;;;;;6027332;23;20023;-38
2022/03/17 07:52:44;;;;;;;9.65;1.48;;;7.50;99.90;;;;;;6002665;23;20437;-38
2022/03/17 07:56:10;;;;;;;8.75;1.73;;;7.50;99.90;;;;;;6026957;23;20064;-38
2022/03/17 07:59:36;;;;;;;14.32;1.95;;;7.50;99.90;;;;;;6002679;23;20027;-38
2022/03/17 08:03:01;;;;;;;9.50;1.45;;;7.60;99.90;;;;;;6002739;23;20465;-38
2022/03/17 08:06:27;;;;;;;9.77;1.42;;;7.60;99.90;;;;;;5978353;23;20507;-39
2022/03/17 08:09:53;;;;;;;7.45;1.88;;;7.60;99.90;;;;;;6026917;23;20019;-38
2022/03/17 08:13:21;;;;;;;10.38;2.10;;;7.60;99.90;;;;;;5999897;23;20559;-39
2022/03/17 08:16:44;;;;;;;12.35;1.67;;;7.70;99.90;;;;;;5977573;23;20029;-39
2022/03/17 08:20:11;;;;;;;9.15;1.70;;;7.70;99.90;;;;;;6004276;23;20015;-39
2022/03/17 08:23:37;;;;;;;13.43;2.70;;;7.70;99.90;;;;;;6002723;23;20857;-38
2022/03/17 08:27:04;;;;;;;13.55;1.98;;;7.70;99.90;;;;;;6000328;23;20062;-38
2022/03/17 08:30:30;;;;;;;15.38;2.35;;;7.70;99.90;;;;;;6000340;23;20019;-39
2022/03/17 08:33:56;;;;;;;13.48;2.45;;;7.70;99.90;;;;;;5972725;23;20020;-39
2022/03/17 08:37:21;;;;;;;15.98;2.65;;;7.70;99.90;;;;;;5998805;23;20683;-39
2022/03/17 08:40:47;;;;;;;18.90;2.58;;;7.80;99.90;;;;;;5974611;23;20016;-38
2022/03/17 08:44:14;;;;;;;10.43;1.92;;;7.80;99.90;;;;;;6000581;23;20076;-39
2022/03/17 08:51:07;;;;;;;17.48;2.50;;;7.90;99.90;;;;;;5999772;23;20035;-39
2022/03/17 08:54:35;;;;;;;9.35;1.77;;;7.80;99.90;;;;;;5974848;23;20075;-39
2022/03/17 08:57:59;;;;;;;17.30;2.38;;;7.80;99.90;;;;;;5974646;23;20030;-39
2022/03/17 09:01:24;;;;;;;11.30;1.85;;;7.70;99.90;;;;;;5998994;23;20023;-38
2022/03/17 09:04:50;;;;;;;10.63;1.30;;;7.60;99.90;;;;;;5999648;23;20110;-38
2022/03/17 09:10:39;;;;;;;10.90;2.08;;;7.50;99.90;;;;;;6001195;23;20110;-38
2022/03/17 09:13:28;;;;;;;11.63;1.42;;;7.60;99.90;;;;;;5998531;23;20016;-38
2022/03/17 09:58:06;;;;;;;11.55;1.98;;;8.40;99.90;;;;;;6000856;23;20088;-38
2022/03/17 10:32:25;;;;;;;13.10;1.90;;;9.70;99.90;;;;;;6006460;23;20090;-39
2022/03/17 10:35:51;;;;;;;11.57;2.00;;;9.70;99.90;;;;;;6028730;23;20097;-39
2022/03/17 10:39:17;;;;;;;14.68;1.75;;;9.80;99.90;;;;;;6004876;23;20022;-38
2022/03/17 10:42:44;;;;;;;9.40;1.40;;;9.70;99.90;;;;;;6000150;23;20015;-39
2022/03/17 10:46:12;;;;;;;10.77;1.85;;;9.60;99.90;;;;;;6028877;23;20087;-39
2022/03/17 10:49:36;;;;;;;11.38;1.75;;;9.60;99.90;;;;;;6003607;23;20023;-39
2022/03/17 10:53:02;;;;;;;12.40;2.95;;;9.60;99.90;;;;;;5978487;23;20105;-39
2022/03/17 10:56:28;;;;;;;9.18;1.77;;;9.90;99.90;;;;;;6027161;23;20070;-39
2022/03/17 10:59:56;;;;;;;14.77;1.90;;;10.20;99.90;;;;;;6027904;23;20019;-39
2022/03/17 11:03:20;;;;;;;9.68;2.08;;;10.40;99.90;;;;;;5979752;23;20454;-39
2022/03/17 11:06:46;;;;;;;13.68;2.55;;;10.80;99.90;;;;;;5978689;23;20030;-39
2022/03/17 11:10:15;;;;;;;9.73;1.75;;;11.10;99.90;;;;;;6003098;23;20549;-39
2022/03/17 11:13:39;;;;;;;12.75;2.20;;;11.20;99.90;;;;;;6002431;23;20026;-39
2022/03/17 11:17:06;;;;;;;13.68;1.77;;;11.60;99.90;;;;;;5978111;23;20451;-40
2022/03/17 11:20:32;;;;;;;9.70;2.25;;;11.90;99.90;;;;;;6001868;23;20015;-39
2022/03/17 11:24:01;;;;;;;12.60;2.22;;;11.80;99.90;;;;;;6002076;23;20019;-39
2022/03/17 11:27:24;;;;;;;9.35;2.15;;;11.30;99.90;;;;;;6004455;23;20118;-40
2022/03/17 11:30:50;;;;;;;15.82;2.08;;;11.30;99.90;;;;;;6001551;23;20094;-39
2022/03/17 11:34:16;;;;;;;9.07;1.75;;;11.20;99.90;;;;;;6002120;23;20450;-40
2022/03/17 11:37:41;;;;;;;11.98;2.42;;;11.30;99.90;;;;;;6025438;23;20023;-40
2022/03/17 11:41:09;;;;;;;15.73;2.25;;;11.50;99.90;;;;;;6029167;23;20019;-39
2022/03/17 11:44:36;;;;;;;9.18;1.85;;;11.50;99.90;;;;;;6024702;23;20411;-40
2022/03/17 11:47:59;;;;;;;7.13;1.60;;;11.60;99.90;;;;;;6001737;23;20029;-40
2022/03/17 11:54:58;;;;;;;9.82;2.28;;;11.80;99.90;;;;;;6001379;23;20383;-39
2022/03/17 11:58:19;;;;;;;10.07;1.90;;;11.90;99.90;;;;;;6002485;23;20030;-39
2022/03/17 12:01:46;;;;;;;8.80;1.85;;;12.20;99.90;;;;;;6027417;23;20019;-39
2022/03/17 12:05:12;;;;;;;11.98;2.15;;;12.40;99.90;;;;;;6004985;23;20063;-40
2022/03/17 12:08:36;;;;;;;8.75;1.70;;;12.60;99.90;;;;;;6002149;23;20500;-40
2022/03/17 12:12:03;;;;;;;9.50;2.05;;;12.60;99.90;;;;;;6003654;23;20044;-40
2022/03/17 12:15:30;;;;;;;9.05;1.77;;;12.50;99.90;;;;;;6003391;23;20129;-40
2022/03/17 12:18:55;;;;;;;11.07;1.95;;;12.50;99.90;;;;;;6028018;23;20023;-39
2022/03/17 12:22:20;;;;;;;8.43;2.03;;;12.70;99.90;;;;;;6028842;23;20012;-41
2022/03/17 12:25:49;;;;;;;8.93;1.55;;;12.80;99.90;;;;;;5980569;23;20011;-40
2022/03/17 12:29:15;;;;;;;10.77;1.40;;;13.00;99.90;;;;;;6027345;23;20016;-40
2022/03/17 12:32:40;;;;;;;8.68;1.60;;;13.10;99.90;;;;;;6024200;23;20019;-40
2022/03/17 12:36:05;;;;;;;8.13;1.70;;;13.00;99.90;;;;;;6026281;23;20034;-40
2022/03/17 12:39:31;;;;;;;12.15;2.03;;;13.20;99.90;;;;;;6002995;23;20295;-42
2022/03/17 12:42:59;;;;;;;6.85;1.20;;;13.30;99.90;;;;;;6028492;23;20062;-40
2022/03/17 12:46:25;;;;;;;6.65;1.40;;;13.30;99.90;;;;;;5998407;23;20146;-40
2022/03/17 12:49:51;;;;;;;9.30;1.50;;;13.20;99.90;;;;;;6001369;23;20019;-40
2022/03/17 12:53:17;;;;;;;6.32;1.30;;;13.30;99.90;;;;;;6003304;23;20434;-40
2022/03/17 12:56:43;;;;;;;7.72;1.58;;;13.30;99.90;;;;;;6004554;23;20015;-41
2022/03/17 13:00:08;;;;;;;8.88;1.88;;;13.20;99.90;;;;;;6029342;23;20387;-40
2022/03/17 13:03:34;;;;;;;10.15;1.80;;;13.30;99.90;;;;;;6003880;23;20015;-42
2022/03/17 13:07:00;;;;;;;9.38;1.30;;;13.50;99.90;;;;;;6028364;23;20036;-41
2022/03/17 13:10:26;;;;;;;10.70;1.85;;;13.60;99.90;;;;;;6004884;23;20019;-41
2022/03/17 13:17:18;;;;;;;9.60;1.60;;;13.40;99.90;;;;;;6004373;23;20027;-41
2022/03/17 13:20:44;;;;;;;9.45;1.95;;;13.30;99.90;;;;;;6005714;23;20030;-40
2022/03/17 13:24:10;;;;;;;7.10;1.70;;;13.40;99.90;;;;;;6030014;23;20019;-41
2022/03/17 13:27:36;;;;;;;10.50;1.80;;;13.50;99.90;;;;;;5982022;23;20083;-40
2022/03/17 13:31:03;;;;;;;8.10;1.70;;;13.50;99.90;;;;;;6030373;23;20078;-39
2022/03/17 13:38:01;;;;;;;7.03;1.23;;;13.50;99.90;;;;;;5975090;23;20039;-40
2022/03/17 13:41:22;;;;;;;7.50;1.75;;;13.40;99.90;;;;;;5953766;23;20107;-49
2022/03/17 13:44:48;;;;;;;7.43;1.50;;;13.50;99.90;;;;;;5975157;23;20020;-46
2022/03/17 13:48:14;;;;;;;6.43;1.48;;;13.50;99.90;;;;;;5976177;23;20330;-46
2022/03/17 13:51:40;;;;;;;10.30;1.52;;;13.40;99.90;;;;;;5950079;23;20011;-48
2022/03/17 13:55:09;;;;;;;10.02;1.75;;;13.30;99.90;;;;;;6000947;23;20467;-47
2022/03/17 13:58:32;;;;;;;11.65;1.63;;;13.00;99.90;;;;;;6001972;23;20023;-47
2022/03/17 14:02:00;;;;;;;10.35;1.60;;;13.00;99.90;;;;;;6003281;23;20055;-46
2022/03/17 14:05:26;;;;;;;8.82;1.60;;;12.80;99.90;;;;;;5998898;23;20026;-47
2022/03/17 14:08:52;;;;;;;6.65;1.38;;;12.70;99.90;;;;;;5953051;23;20195;-47
2022/03/17 14:12:18;;;;;;;6.45;1.30;;;12.60;99.90;;;;;;5951715;23;20607;-45
2022/03/17 14:15:44;;;;;;;5.55;1.48;;;12.30;99.90;;;;;;5973726;23;20034;-46
2022/03/17 14:19:11;;;;;;;8.27;1.55;;;12.20;99.90;;;;;;5974240;23;20051;-45
2022/03/17 14:26:21;;;;;;;4.88;1.20;;;11.90;99.90;;;;;;5996124;23;20118;-47
2022/03/17 14:29:38;;;;;;;8.18;1.23;;;11.60;99.90;;;;;;5969868;23;20743;-47
2022/03/17 14:32:55;;;;;;;8.25;1.45;;;11.50;99.90;;;;;;5993809;23;20030;-45
2022/03/17 14:43:13;;;;;;;6.95;1.00;;;11.10;99.90;;;;;;5971780;23;19926;-44
2022/03/17 14:46:39;;;;;;;7.82;2.05;;;11.00;99.90;;;;;;5971666;23;20024;-44
2022/03/17 14:50:06;;;;;;;10.75;1.80;;;10.80;99.90;;;;;;5965921;23;20394;-44
2022/03/17 14:53:31;;;;;;;7.07;1.58;;;10.80;99.90;;;;;;5994888;23;20051;-45
2022/03/17 14:56:57;;;;;;;7.05;1.55;;;10.70;99.90;;;;;;5947442;23;20042;-44
2022/03/17 15:00:23;;;;;;;7.00;1.25;;;10.70;99.90;;;;;;5974037;23;20038;-44
2022/03/17 15:03:51;;;;;;;7.20;1.10;;;10.70;99.90;;;;;;6001411;23;20443;-46
2022/03/17 15:07:15;;;;;;;6.75;1.27;;;10.60;99.90;;;;;;5970288;23;20066;-44
2022/03/17 15:10:44;;;;;;;11.55;1.45;;;10.60;99.90;;;;;;5970952;23;20155;-44
2022/03/17 15:14:10;;;;;;;10.45;1.25;;;10.50;99.90;;;;;;5970928;23;20024;-45
2022/03/17 15:17:36;;;;;;;7.72;1.20;;;10.50;99.90;;;;;;5971244;23;20312;-43
2022/03/17 15:21:03;;;;;;;7.18;1.15;;;10.40;99.90;;;;;;5971959;23;20046;-44
2022/03/17 15:24:28;;;;;;;6.50;1.15;;;10.40;99.90;;;;;;5973176;23;20630;-43
2022/03/17 15:31:22;;;;;;;8.90;1.50;;;10.30;99.90;;;;;;5972983;23;20163;-44
2022/03/17 15:38:21;;;;;;;7.72;1.77;;;10.20;99.90;;;;;;5999819;23;20034;-43
2022/03/17 15:41:39;;;;;;;9.85;1.17;;;10.20;99.90;;;;;;5999325;23;20122;-44
2022/03/17 15:45:05;;;;;;;10.52;1.45;;;10.20;99.90;;;;;;5998152;23;20125;-44
2022/03/17 15:48:31;;;;;;;9.98;0.95;;;10.10;99.90;;;;;;6000338;23;20059;-44
2022/03/17 15:51:57;;;;;;;7.47;1.35;;;10.20;99.90;;;;;;5996146;23;20023;-44
2022/03/17 15:55:23;;;;;;;5.57;0.90;;;10.10;99.90;;;;;;5980118;23;20027;-44
2022/03/17 15:58:52;;;;;;;7.53;1.73;;;10.10;99.90;;;;;;6000987;23;20453;-44
2022/03/17 16:02:18;;;;;;;8.63;1.50;;;10.00;99.90;;;;;;6029149;23;20756;-45
2022/03/17 16:05:41;;;;;;;5.40;1.10;;;10.00;99.90;;;;;;6026095;23;20050;-43
2022/03/17 16:09:10;;;;;;;8.70;1.52;;;10.00;99.90;;;;;;6000557;23;20441;-44
2022/03/17 16:16:03;;;;;;;8.68;1.58;;;9.90;99.90;;;;;;6025179;23;20055;-43
2022/03/17 16:19:26;;;;;;;6.82;1.95;;;9.80;99.90;;;;;;5976109;23;20023;-44
2022/03/17 16:22:53;;;;;;;11.48;1.60;;;9.80;99.90;;;;;;6001819;23;20525;-43
2022/03/17 16:26:19;;;;;;;9.07;1.27;;;9.70;99.90;;;;;;6001473;23;20078;-44
2022/03/17 16:33:22;;;;;;;5.00;1.13;;;9.60;99.90;;;;;;6016625;23;20042;-44
2022/03/17 16:36:44;;;;;;;7.68;1.20;;;9.60;99.90;;;;;;5974271;23;20034;-43
2022/03/17 16:40:02;;;;;;;3.85;1.13;;;9.50;99.90;;;;;;5971969;23;20020;-43
2022/03/17 16:43:27;;;;;;;6.10;1.02;;;9.50;99.90;;;;;;5994410;23;20015;-43
2022/03/17 16:46:55;;;;;;;5.13;0.93;;;9.40;99.90;;;;;;5997983;23;20331;-43
2022/03/17 16:50:22;;;;;;;5.68;1.20;;;9.40;99.90;;;;;;5974324;23;20024;-43
2022/03/17 16:53:45;;;;;;;5.43;1.10;;;9.30;99.90;;;;;;5971860;23;20082;-44
2022/03/17 16:57:12;;;;;;;7.57;1.48;;;9.20;99.90;;;;;;5998279;23;20023;-44
2022/03/17 17:00:39;;;;;;;9.23;1.42;;;9.10;99.90;;;;;;5947505;23;20016;-44
2022/03/17 17:04:04;;;;;;;6.85;1.23;;;9.00;99.90;;;;;;5997934;23;20026;-45
2022/03/17 17:07:32;;;;;;;5.35;1.30;;;9.00;99.90;;;;;;5953135;23;20035;-45
2022/03/17 17:10:58;;;;;;;5.68;1.17;;;8.90;99.90;;;;;;5971549;23;20027;-44
2022/03/17 17:14:24;;;;;;;9.55;1.55;;;8.80;99.90;;;;;;5950029;23;20019;-44
2022/03/17 17:17:50;;;;;;;7.82;1.42;;;8.70;99.90;;;;;;5950183;23;20027;-44
2022/03/17 17:21:15;;;;;;;11.70;1.58;;;8.60;99.90;;;;;;6001191;23;20094;-44
2022/03/17 17:31:48;;;;;;;5.35;1.40;;;8.40;99.90;;;;;;6000455;23;20095;-43
2022/03/17 17:35:07;;;;;;;8.52;1.85;;;8.20;99.90;;;;;;5975929;23;20048;-42
2022/03/17 17:38:28;;;;;;;11.45;1.60;;;8.10;99.90;;;;;;5972907;23;20438;-42
2022/03/17 17:41:54;;;;;;;7.20;1.40;;;8.00;99.90;;;;;;5970954;23;20188;-42
2022/03/17 17:45:22;;;;;;;7.00;1.58;;;7.90;99.90;;;;;;5998847;23;20106;-42
2022/03/17 17:47:49;;;;;;;9.82;1.83;;;7.80;99.90;;;;;;6002676;23;20392;-43
2022/03/17 17:50:28;;;;;;;9.88;1.85;;;7.70;99.90;;;;;;5951671;23;20402;-43
2022/03/17 18:07:38;;;;;;;11.27;2.53;;;7.30;99.90;;;;;;6001597;23;20618;-43
2022/03/17 18:38:38;;;;;;;8.20;2.13;;;6.70;99.90;;;;;;6005179;23;20665;-43
2022/03/17 18:42:00;;;;;;;9.10;2.85;;;6.60;99.90;;;;;;6001315;23;20086;-43
2022/03/17 18:45:27;;;;;;;7.63;2.10;;;6.50;99.90;;;;;;5997545;23;20342;-43
2022/03/17 18:48:53;;;;;;;7.40;2.58;;;6.50;99.90;;;;;;5999755;23;20060;-43
2022/03/17 18:52:17;;;;;;;13.20;2.58;;;6.00;99.90;;;;;;6000168;23;20015;-43
2022/03/17 18:55:45;;;;;;;10.07;2.72;;;6.30;99.90;;;;;;5997624;23;20027;-43
2022/03/17 18:59:11;;;;;;;12.63;3.35;;;6.20;99.90;;;;;;5999820;23;20050;-43
2022/03/17 19:02:37;;;;;;;8.98;2.47;;;6.20;99.90;;;;;;5974758;23;20323;-43
2022/03/17 19:06:05;;;;;;;15.38;2.63;;;6.10;99.90;;;;;;5998917;23;20027;-43
2022/03/17 19:09:29;;;;;;;8.15;2.13;;;6.00;99.90;;;;;;5999040;23;20027;-43
2022/03/17 19:12:55;;;;;;;11.70;3.03;;;6.00;99.90;;;;;;6000079;23;20016;-43
2022/03/17 19:16:21;;;;;;;9.82;3.22;;;5.90;99.90;;;;;;6002220;23;20098;-42
2022/03/17 19:19:49;;;;;;;12.00;3.60;;;5.80;99.90;;;;;;5998623;23;20114;-43
2022/03/17 19:23:13;;;;;;;12.93;3.75;;;5.80;99.90;;;;;;6001354;23;20027;-43
2022/03/17 19:26:40;;;;;;;15.90;4.45;;;5.80;99.90;;;;;;5999910;23;20023;-43
2022/03/17 19:30:07;;;;;;;15.35;3.47;;;5.80;99.90;;;;;;6001404;23;20051;-43
2022/03/17 19:33:31;;;;;;;12.27;3.22;;;5.70;99.90;;;;;;5996205;23;20094;-43
2022/03/17 19:36:58;;;;;;;13.55;3.15;;;5.70;99.90;;;;;;5975336;23;20571;-43
2022/03/17 19:40:25;;;;;;;11.23;2.60;;;5.60;99.90;;;;;;5975527;23;20016;-42
2022/03/17 19:43:53;;;;;;;9.38;2.95;;;5.60;99.90;;;;;;5977883;23;20095;-42
2022/03/17 19:47:18;;;;;;;12.43;3.13;;;5.60;99.90;;;;;;6003307;23;20039;-42
2022/03/17 19:50:53;;;;;;;12.15;3.55;;;5.50;99.90;;;;;;5953052;23;20012;-42
2022/03/17 19:54:12;;;;;;;11.20;2.53;;;5.50;99.90;;;;;;5977371;23;20504;-42
2022/03/17 19:57:35;;;;;;;10.45;2.90;;;5.50;99.90;;;;;;5952328;23;20019;-42
2022/03/17 20:01:01;;;;;;;15.00;3.05;;;5.50;99.90;;;;;;5978252;23;20030;-42
2022/03/17 20:04:27;;;;;;;11.88;2.78;;;5.40;99.90;;;;;;5976237;23;20016;-42
2022/03/17 20:07:53;;;;;;;11.75;3.67;;;5.50;99.90;;;;;;5976937;23;20031;-42
2022/03/17 20:15:02;;;;;;;9.98;2.95;;;5.30;99.90;;;;;;5912108;24;20082;-42
2022/03/17 20:18:18;;;;;;;16.15;3.67;;;5.20;99.90;;;;;;5893016;24;20088;-42
2022/03/17 20:21:40;;;;;;;13.52;3.60;;;5.20;99.90;;;;;;5913915;24;20036;-42
2022/03/17 20:25:02;;;;;;;9.50;3.03;;;5.10;99.90;;;;;;5893626;24;20399;-42
2022/03/17 20:28:32;;;;;;;13.50;3.88;;;5.60;99.90;;;;;;5914289;24;20058;-42
2022/03/17 20:31:57;;;;;;;16.45;3.40;;;5.10;99.90;;;;;;5913583;24;20095;-42
2022/03/17 20:35:22;;;;;;;12.35;3.17;;;5.00;99.90;;;;;;5925730;23;20349;-42
2022/03/17 20:38:46;;;;;;;12.00;3.47;;;5.00;99.90;;;;;;5951610;23;20020;-42
2022/03/17 20:45:45;;;;;;;9.85;3.33;;;4.90;99.90;;;;;;6002353;23;20031;-42
2022/03/17 20:49:07;;;;;;;21.88;4.15;;;4.90;99.90;;;;;;6002376;23;20020;-42
2022/03/17 20:52:33;;;;;;;14.90;3.42;;;4.80;99.90;;;;;;5978364;23;20115;-42
2022/03/17 20:59:33;;;;;;;15.38;3.13;;;4.70;99.90;;;;;;5972573;23;20030;-42
2022/03/17 21:02:50;;;;;;;11.07;3.50;;;4.70;99.90;;;;;;5976313;23;20851;-42
2022/03/17 21:06:17;;;;;;;14.43;4.25;;;4.70;99.90;;;;;;5947673;23;20155;-41
2022/03/17 21:09:43;;;;;;;17.67;4.75;;;4.60;99.90;;;;;;5975221;23;20027;-42
2022/03/17 21:13:09;;;;;;;13.00;4.25;;;4.60;99.90;;;;;;5975202;23;20450;-42
2022/03/17 21:16:35;;;;;;;11.93;5.00;;;4.60;99.90;;;;;;6002210;23;20051;-41
2022/03/17 21:20:01;;;;;;;15.32;3.92;;;4.50;99.90;;;;;;5999402;23;20587;-42
2022/03/17 21:23:26;;;;;;;14.68;4.20;;;4.50;99.90;;;;;;6000347;23;20030;-42
2022/03/17 21:26:55;;;;;;;13.07;4.25;;;4.50;99.90;;;;;;5979412;23;20028;-41
2022/03/17 21:30:21;;;;;;;16.65;4.97;;;4.40;99.90;;;;;;5954780;23;20024;-41
2022/03/17 21:37:20;;;;;;;16.75;5.13;;;4.30;99.90;;;;;;5999635;23;20034;-41
2022/03/17 21:40:37;;;;;;;11.80;5.80;;;4.40;99.90;;;;;;5995353;23;20026;-41
2022/03/17 21:44:05;;;;;;;11.40;5.28;;;4.30;99.90;;;;;;6003488;23;20086;-41
2022/03/17 21:47:32;;;;;;;13.15;5.50;;;4.20;99.90;;;;;;6000772;23;20459;-41
2022/03/17 21:50:56;;;;;;;14.45;5.53;;;4.20;99.90;;;;;;5976754;23;20383;-41
2022/03/17 21:54:22;;;;;;;11.98;5.05;;;4.20;99.90;;;;;;5977886;23;20519;-41
2022/03/17 21:57:48;;;;;;;15.88;5.22;;;4.10;99.90;;;;;;5977942;23;20463;-41
2022/03/17 22:01:14;;;;;;;13.13;4.88;;;4.20;99.90;;;;;;6001618;23;20020;-41
2022/03/17 22:04:40;;;;;;;17.60;4.90;;;4.10;99.90;;;;;;6000741;23;20059;-41
2022/03/17 22:08:05;;;;;;;13.93;4.75;;;4.00;99.90;;;;;;6002532;23;20020;-41
2022/03/17 22:11:32;;;;;;;13.05;4.65;;;4.10;99.90;;;;;;5999982;23;20024;-41
2022/03/17 22:14:57;;;;;;;13.55;4.38;;;4.00;99.90;;;;;;6005169;23;20329;-41
2022/03/17 22:18:23;;;;;;;10.80;4.22;;;3.90;99.90;;;;;;6000818;23;20038;-41
2022/03/17 22:21:49;;;;;;;11.18;4.63;;;3.90;99.90;;;;;;6000966;23;20091;-41
2022/03/17 22:25:16;;;;;;;11.98;4.47;;;3.90;99.90;;;;;;6003772;23;20051;-41
2022/03/17 22:28:42;;;;;;;12.88;4.82;;;3.90;99.90;;;;;;6000619;23;20052;-41
2022/03/17 22:32:08;;;;;;;17.42;4.90;;;3.90;99.90;;;;;;5996417;23;20534;-41
2022/03/17 22:35:34;;;;;;;17.73;4.97;;;3.90;99.90;;;;;;5985440;23;20042;-41
2022/03/17 22:39:01;;;;;;;14.85;4.80;;;3.90;99.90;;;;;;6008676;23;20082;-41
2022/03/17 22:42:27;;;;;;;17.45;4.15;;;3.90;99.90;;;;;;6032434;23;20090;-41
2022/03/17 22:45:53;;;;;;;11.20;4.55;;;3.90;99.90;;;;;;6031760;23;20027;-41
2022/03/17 22:49:19;;;;;;;11.43;4.00;;;3.90;99.90;;;;;;6002833;23;20473;-41
2022/03/17 22:52:45;;;;;;;16.52;4.40;;;3.80;99.90;;;;;;6029635;23;20019;-42
2022/03/17 22:56:12;;;;;;;12.15;4.13;;;3.80;99.90;;;;;;5982491;23;20447;-41
2022/03/17 22:59:38;;;;;;;12.93;3.97;;;3.80;99.90;;;;;;6006024;23;20166;-41
2022/03/17 23:03:04;;;;;;;14.23;5.28;;;3.70;99.90;;;;;;6032829;23;20587;-41
2022/03/17 23:06:31;;;;;;;12.90;4.97;;;3.70;99.90;;;;;;6004575;23;20529;-41
2022/03/17 23:09:54;;;;;;;12.07;4.13;;;3.70;99.90;;;;;;5981241;23;20508;-41
2022/03/17 23:13:25;;;;;;;10.52;4.13;;;3.70;99.90;;;;;;6030569;23;20012;-42
2022/03/17 23:16:48;;;;;;;20.67;4.50;;;3.70;99.90;;;;;;5977587;23;20114;-41